sensor_id;sensor_type;location;lat;lon;timestamp;temperature;humidity
9403;DHT22;4741;49.834;10.740;2023-08-06T00:00:56;16.80;99.90
9403;DHT22;4741;49.834;10.740;2023-08-06T00:03:23;15.70;99.90
9403;DHT22;4741;49.834;10.740;2023-08-06T00:05:50;16.80;99.90
9403;DHT22;4741;49.834;10.740;2023-08-06T00:08:16;15.20;99.90
9403;DHT22;4741;49.834;10.740;2023-08-06T00:13:10;15.50;99.90
9403;DHT22;4741;49.834;10.740;2023-08-06T00:15:37;15.30;99.90
9403;DHT22;4741;49.834;10.740;2023-08-06T00:18:04;15.30;99.90
9403;DHT22;4741;49.834;10.740;2023-08-06T00:20:31;15.20;99.90
9403;DHT22;4741;49.834;10.740;2023-08-06T00:22:57;15.10;99.90
9403;DHT22;4741;49.834;10.740;2023-08-06T00:25:24;14.90;99.90
9403;DHT22;4741;49.834;10.740;2023-08-06T00:27:51;14.80;99.90
9403;DHT22;4741;49.834;10.740;2023-08-06T00:30:18;14.70;99.90
9403;DHT22;4741;49.834;10.740;2023-08-06T00:32:44;14.70;99.90
9403;DHT22;4741;49.834;10.740;2023-08-06T00:35:11;14.80;99.90
9403;DHT22;4741;49.834;10.740;2023-08-06T00:37:40;14.80;99.90
9403;DHT22;4741;49.834;10.740;2023-08-06T00:40:06;15.00;99.90
9403;DHT22;4741;49.834;10.740;2023-08-06T00:42:34;14.90;99.90
9403;DHT22;4741;49.834;10.740;2023-08-06T00:45:01;14.90;99.90
9403;DHT22;4741;49.834;10.740;2023-08-06T00:47:29;14.90;99.90
9403;DHT22;4741;49.834;10.740;2023-08-06T00:49:56;14.90;99.90
9403;DHT22;4741;49.834;10.740;2023-08-06T00:52:23;14.90;99.90
9403;DHT22;4741;49.834;10.740;2023-08-06T00:54:50;14.70;99.90
9403;DHT22;4741;49.834;10.740;2023-08-06T00:57:17;14.60;99.90
9403;DHT22;4741;49.834;10.740;2023-08-06T00:59:43;14.70;99.90
9403;DHT22;4741;49.834;10.740;2023-08-06T01:02:11;14.60;99.90
9403;DHT22;4741;49.834;10.740;2023-08-06T01:04:38;14.60;99.90
9403;DHT22;4741;49.834;10.740;2023-08-06T01:15:16;14.60;99.90
9403;DHT22;4741;49.834;10.740;2023-08-06T01:17:47;14.60;99.90
9403;DHT22;4741;49.834;10.740;2023-08-06T01:20:14;14.60;99.90
9403;DHT22;4741;49.834;10.740;2023-08-06T01:22:41;14.60;99.90
9403;DHT22;4741;49.834;10.740;2023-08-06T01:25:08;14.50;99.90
9403;DHT22;4741;49.834;10.740;2023-08-06T01:32:31;14.20;99.90
9403;DHT22;4741;49.834;10.740;2023-08-06T01:35:02;14.10;99.90
9403;DHT22;4741;49.834;10.740;2023-08-06T01:37:31;14.00;99.90
9403;DHT22;4741;49.834;10.740;2023-08-06T01:39:58;13.90;99.90
9403;DHT22;4741;49.834;10.740;2023-08-06T01:42:25;13.90;99.90
9403;DHT22;4741;49.834;10.740;2023-08-06T01:44:52;14.00;99.90
9403;DHT22;4741;49.834;10.740;2023-08-06T01:47:19;13.90;99.90
9403;DHT22;4741;49.834;10.740;2023-08-06T01:49:46;13.90;99.90
9403;DHT22;4741;49.834;10.740;2023-08-06T01:52:12;14.00;99.90
9403;DHT22;4741;49.834;10.740;2023-08-06T01:54:39;13.90;99.90
9403;DHT22;4741;49.834;10.740;2023-08-06T01:57:06;13.90;99.90
9403;DHT22;4741;49.834;10.740;2023-08-06T01:59:33;13.90;99.90
9403;DHT22;4741;49.834;10.740;2023-08-06T02:02:00;14.50;99.90
9403;DHT22;4741;49.834;10.740;2023-08-06T02:04:27;14.00;99.90
9403;DHT22;4741;49.834;10.740;2023-08-06T02:06:53;13.90;99.90
9403;DHT22;4741;49.834;10.740;2023-08-06T02:09:20;13.80;99.90
9403;DHT22;4741;49.834;10.740;2023-08-06T02:11:47;13.90;99.90
9403;DHT22;4741;49.834;10.740;2023-08-06T02:14:14;13.90;99.90
9403;DHT22;4741;49.834;10.740;2023-08-06T02:16:40;13.90;99.90
9403;DHT22;4741;49.834;10.740;2023-08-06T02:19:07;14.00;99.90
9403;DHT22;4741;49.834;10.740;2023-08-06T02:21:34;14.00;99.90
9403;DHT22;4741;49.834;10.740;2023-08-06T02:24:01;13.90;99.90
9403;DHT22;4741;49.834;10.740;2023-08-06T02:26:28;14.00;99.90
9403;DHT22;4741;49.834;10.740;2023-08-06T02:28:55;13.90;99.90
9403;DHT22;4741;49.834;10.740;2023-08-06T02:31:22;13.90;99.90
9403;DHT22;4741;49.834;10.740;2023-08-06T02:33:49;14.10;99.90
9403;DHT22;4741;49.834;10.740;2023-08-06T02:36:15;14.10;99.90
9403;DHT22;4741;49.834;10.740;2023-08-06T02:38:42;14.20;99.90
9403;DHT22;4741;49.834;10.740;2023-08-06T02:41:09;14.20;99.90
9403;DHT22;4741;49.834;10.740;2023-08-06T02:43:35;14.20;99.90
9403;DHT22;4741;49.834;10.740;2023-08-06T02:46:02;14.00;99.90
9403;DHT22;4741;49.834;10.740;2023-08-06T02:48:29;14.10;99.90
9403;DHT22;4741;49.834;10.740;2023-08-06T02:50:59;14.10;99.90
9403;DHT22;4741;49.834;10.740;2023-08-06T02:53:26;14.20;99.90
9403;DHT22;4741;49.834;10.740;2023-08-06T02:55:53;14.30;99.90
9403;DHT22;4741;49.834;10.740;2023-08-06T02:58:20;14.30;99.90
9403;DHT22;4741;49.834;10.740;2023-08-06T03:01:04;14.30;99.90
9403;DHT22;4741;49.834;10.740;2023-08-06T03:03:34;14.30;99.90
9403;DHT22;4741;49.834;10.740;2023-08-06T03:06:00;14.30;99.90
9403;DHT22;4741;49.834;10.740;2023-08-06T03:08:28;14.20;99.90
9403;DHT22;4741;49.834;10.740;2023-08-06T03:10:55;14.20;99.90
9403;DHT22;4741;49.834;10.740;2023-08-06T03:13:21;14.20;99.90
9403;DHT22;4741;49.834;10.740;2023-08-06T03:15:55;14.10;99.90
9403;DHT22;4741;49.834;10.740;2023-08-06T03:18:23;14.10;99.90
9403;DHT22;4741;49.834;10.740;2023-08-06T03:20:52;14.10;99.90
9403;DHT22;4741;49.834;10.740;2023-08-06T03:23:19;14.00;99.90
9403;DHT22;4741;49.834;10.740;2023-08-06T03:25:45;13.80;99.90
9403;DHT22;4741;49.834;10.740;2023-08-06T03:28:12;13.70;99.90
9403;DHT22;4741;49.834;10.740;2023-08-06T03:30:39;13.70;99.90
9403;DHT22;4741;49.834;10.740;2023-08-06T03:33:06;13.50;99.90
9403;DHT22;4741;49.834;10.740;2023-08-06T03:35:33;13.50;99.90
9403;DHT22;4741;49.834;10.740;2023-08-06T03:38:00;13.70;99.90
9403;DHT22;4741;49.834;10.740;2023-08-06T03:40:26;13.50;99.90
9403;DHT22;4741;49.834;10.740;2023-08-06T03:42:53;13.30;99.90
9403;DHT22;4741;49.834;10.740;2023-08-06T03:45:20;13.40;99.90
9403;DHT22;4741;49.834;10.740;2023-08-06T03:47:46;13.50;99.90
9403;DHT22;4741;49.834;10.740;2023-08-06T03:50:13;13.50;99.90
9403;DHT22;4741;49.834;10.740;2023-08-06T03:52:40;13.40;99.90
9403;DHT22;4741;49.834;10.740;2023-08-06T03:55:07;13.30;99.90
9403;DHT22;4741;49.834;10.740;2023-08-06T03:57:34;13.30;99.90
9403;DHT22;4741;49.834;10.740;2023-08-06T04:00:01;13.20;99.90
9403;DHT22;4741;49.834;10.740;2023-08-06T04:02:29;13.20;99.90
9403;DHT22;4741;49.834;10.740;2023-08-06T04:04:55;13.10;99.90
9403;DHT22;4741;49.834;10.740;2023-08-06T04:07:22;13.10;99.90
9403;DHT22;4741;49.834;10.740;2023-08-06T04:09:59;13.10;99.90
9403;DHT22;4741;49.834;10.740;2023-08-06T04:12:27;13.00;99.90
9403;DHT22;4741;49.834;10.740;2023-08-06T04:14:54;13.00;99.90
9403;DHT22;4741;49.834;10.740;2023-08-06T04:17:22;12.90;99.90
9403;DHT22;4741;49.834;10.740;2023-08-06T04:19:50;13.00;99.90
9403;DHT22;4741;49.834;10.740;2023-08-06T04:22:18;13.00;99.90
9403;DHT22;4741;49.834;10.740;2023-08-06T04:24:45;12.80;99.90
9403;DHT22;4741;49.834;10.740;2023-08-06T04:27:12;12.90;99.90
9403;DHT22;4741;49.834;10.740;2023-08-06T04:29:40;12.90;99.90
9403;DHT22;4741;49.834;10.740;2023-08-06T04:32:07;12.90;99.90
9403;DHT22;4741;49.834;10.740;2023-08-06T04:34:36;13.00;99.90
9403;DHT22;4741;49.834;10.740;2023-08-06T04:37:03;13.00;99.90
9403;DHT22;4741;49.834;10.740;2023-08-06T04:39:31;13.10;99.90
9403;DHT22;4741;49.834;10.740;2023-08-06T04:41:58;12.90;99.90
9403;DHT22;4741;49.834;10.740;2023-08-06T04:44:24;13.00;99.90
9403;DHT22;4741;49.834;10.740;2023-08-06T04:46:51;13.10;99.90
9403;DHT22;4741;49.834;10.740;2023-08-06T04:49:19;13.20;99.90
9403;DHT22;4741;49.834;10.740;2023-08-06T04:51:46;13.30;99.90
9403;DHT22;4741;49.834;10.740;2023-08-06T04:54:13;13.30;99.90
9403;DHT22;4741;49.834;10.740;2023-08-06T04:56:40;13.50;99.90
9403;DHT22;4741;49.834;10.740;2023-08-06T04:59:07;13.50;99.90
9403;DHT22;4741;49.834;10.740;2023-08-06T05:01:33;13.40;99.90
9403;DHT22;4741;49.834;10.740;2023-08-06T05:04:00;13.60;99.90
9403;DHT22;4741;49.834;10.740;2023-08-06T05:06:27;13.60;99.90
9403;DHT22;4741;49.834;10.740;2023-08-06T05:08:54;13.60;99.90
9403;DHT22;4741;49.834;10.740;2023-08-06T05:11:21;13.70;99.90
9403;DHT22;4741;49.834;10.740;2023-08-06T05:13:47;13.20;99.90
9403;DHT22;4741;49.834;10.740;2023-08-06T05:16:14;13.70;99.90
9403;DHT22;4741;49.834;10.740;2023-08-06T05:18:41;13.80;99.90
9403;DHT22;4741;49.834;10.740;2023-08-06T05:21:08;13.70;99.90
9403;DHT22;4741;49.834;10.740;2023-08-06T05:23:35;13.80;99.90
9403;DHT22;4741;49.834;10.740;2023-08-06T05:26:01;13.80;99.90
9403;DHT22;4741;49.834;10.740;2023-08-06T05:28:28;13.80;99.90
9403;DHT22;4741;49.834;10.740;2023-08-06T05:30:55;13.90;99.90
9403;DHT22;4741;49.834;10.740;2023-08-06T05:33:22;13.80;99.90
9403;DHT22;4741;49.834;10.740;2023-08-06T05:35:49;13.80;99.90
9403;DHT22;4741;49.834;10.740;2023-08-06T05:38:16;13.80;99.90
9403;DHT22;4741;49.834;10.740;2023-08-06T05:40:43;13.90;99.90
9403;DHT22;4741;49.834;10.740;2023-08-06T05:43:11;13.90;99.90
9403;DHT22;4741;49.834;10.740;2023-08-06T05:45:37;14.00;99.90
9403;DHT22;4741;49.834;10.740;2023-08-06T05:48:04;14.10;99.90
9403;DHT22;4741;49.834;10.740;2023-08-06T05:50:31;14.10;99.90
9403;DHT22;4741;49.834;10.740;2023-08-06T05:52:58;14.10;99.90
9403;DHT22;4741;49.834;10.740;2023-08-06T05:55:27;14.20;99.90
9403;DHT22;4741;49.834;10.740;2023-08-06T05:57:54;14.30;99.90
9403;DHT22;4741;49.834;10.740;2023-08-06T06:00:21;14.30;99.90
9403;DHT22;4741;49.834;10.740;2023-08-06T06:02:48;14.50;99.90
9403;DHT22;4741;49.834;10.740;2023-08-06T06:05:15;14.90;99.90
9403;DHT22;4741;49.834;10.740;2023-08-06T06:07:42;14.90;99.90
9403;DHT22;4741;49.834;10.740;2023-08-06T06:10:09;15.10;99.90
9403;DHT22;4741;49.834;10.740;2023-08-06T06:12:37;15.30;99.90
9403;DHT22;4741;49.834;10.740;2023-08-06T06:15:05;15.30;99.90
9403;DHT22;4741;49.834;10.740;2023-08-06T06:17:32;15.40;99.90
9403;DHT22;4741;49.834;10.740;2023-08-06T06:19:59;15.40;99.90
9403;DHT22;4741;49.834;10.740;2023-08-06T06:22:26;15.60;99.90
9403;DHT22;4741;49.834;10.740;2023-08-06T06:24:53;15.60;99.90
9403;DHT22;4741;49.834;10.740;2023-08-06T06:27:20;15.60;99.90
9403;DHT22;4741;49.834;10.740;2023-08-06T06:29:46;15.70;99.90
9403;DHT22;4741;49.834;10.740;2023-08-06T06:32:13;15.50;99.90
9403;DHT22;4741;49.834;10.740;2023-08-06T06:34:40;15.40;99.90
9403;DHT22;4741;49.834;10.740;2023-08-06T06:37:07;15.60;99.90
9403;DHT22;4741;49.834;10.740;2023-08-06T06:39:33;15.70;99.90
9403;DHT22;4741;49.834;10.740;2023-08-06T06:42:00;15.60;99.90
9403;DHT22;4741;49.834;10.740;2023-08-06T06:44:27;15.60;99.90
9403;DHT22;4741;49.834;10.740;2023-08-06T06:46:53;15.60;99.90
9403;DHT22;4741;49.834;10.740;2023-08-06T06:49:20;15.50;99.90
9403;DHT22;4741;49.834;10.740;2023-08-06T06:51:47;15.80;99.90
9403;DHT22;4741;49.834;10.740;2023-08-06T06:54:14;15.80;99.90
9403;DHT22;4741;49.834;10.740;2023-08-06T06:56:41;15.80;99.90
9403;DHT22;4741;49.834;10.740;2023-08-06T06:59:08;15.70;99.90
9403;DHT22;4741;49.834;10.740;2023-08-06T07:01:35;15.70;99.90
9403;DHT22;4741;49.834;10.740;2023-08-06T07:04:01;15.80;99.90
9403;DHT22;4741;49.834;10.740;2023-08-06T07:06:31;15.90;99.90
9403;DHT22;4741;49.834;10.740;2023-08-06T07:08:58;15.90;99.90
9403;DHT22;4741;49.834;10.740;2023-08-06T07:11:25;15.90;99.90
9403;DHT22;4741;49.834;10.740;2023-08-06T07:13:58;15.90;99.90
9403;DHT22;4741;49.834;10.740;2023-08-06T07:16:25;15.90;99.90
9403;DHT22;4741;49.834;10.740;2023-08-06T07:18:53;15.90;99.90
9403;DHT22;4741;49.834;10.740;2023-08-06T07:21:20;16.10;99.90
9403;DHT22;4741;49.834;10.740;2023-08-06T07:23:47;16.00;99.90
9403;DHT22;4741;49.834;10.740;2023-08-06T07:26:16;16.10;99.90
9403;DHT22;4741;49.834;10.740;2023-08-06T07:28:44;16.20;99.90
9403;DHT22;4741;49.834;10.740;2023-08-06T07:31:11;16.10;99.90
9403;DHT22;4741;49.834;10.740;2023-08-06T07:33:38;16.20;99.90
9403;DHT22;4741;49.834;10.740;2023-08-06T07:36:12;16.10;99.90
9403;DHT22;4741;49.834;10.740;2023-08-06T07:38:40;16.20;99.90
9403;DHT22;4741;49.834;10.740;2023-08-06T07:41:08;16.10;99.90
9403;DHT22;4741;49.834;10.740;2023-08-06T07:43:35;16.20;99.90
9403;DHT22;4741;49.834;10.740;2023-08-06T07:46:02;16.00;99.90
9403;DHT22;4741;49.834;10.740;2023-08-06T07:48:29;15.90;99.90
9403;DHT22;4741;49.834;10.740;2023-08-06T07:50:57;15.80;99.90
9403;DHT22;4741;49.834;10.740;2023-08-06T07:53:24;15.50;99.90
9403;DHT22;4741;49.834;10.740;2023-08-06T07:55:53;15.20;99.90
9403;DHT22;4741;49.834;10.740;2023-08-06T07:58:20;14.80;99.90
9403;DHT22;4741;49.834;10.740;2023-08-06T08:00:47;14.20;99.90
9403;DHT22;4741;49.834;10.740;2023-08-06T08:03:15;14.50;99.90
9403;DHT22;4741;49.834;10.740;2023-08-06T08:05:43;14.20;99.90
9403;DHT22;4741;49.834;10.740;2023-08-06T08:08:10;14.30;99.90
9403;DHT22;4741;49.834;10.740;2023-08-06T08:10:37;14.40;99.90
9403;DHT22;4741;49.834;10.740;2023-08-06T08:13:05;14.80;99.90
9403;DHT22;4741;49.834;10.740;2023-08-06T08:15:32;14.70;99.90
9403;DHT22;4741;49.834;10.740;2023-08-06T08:17:59;14.40;99.90
9403;DHT22;4741;49.834;10.740;2023-08-06T08:20:26;14.70;99.90
9403;DHT22;4741;49.834;10.740;2023-08-06T08:23:01;14.90;99.90
9403;DHT22;4741;49.834;10.740;2023-08-06T08:25:29;14.90;99.90
9403;DHT22;4741;49.834;10.740;2023-08-06T08:27:57;15.00;99.90
9403;DHT22;4741;49.834;10.740;2023-08-06T08:30:24;15.40;99.90
9403;DHT22;4741;49.834;10.740;2023-08-06T08:32:52;15.50;99.90
9403;DHT22;4741;49.834;10.740;2023-08-06T08:35:20;15.30;99.90
9403;DHT22;4741;49.834;10.740;2023-08-06T08:37:46;15.20;99.90
9403;DHT22;4741;49.834;10.740;2023-08-06T08:40:14;15.00;99.90
9403;DHT22;4741;49.834;10.740;2023-08-06T08:42:41;14.90;99.90
9403;DHT22;4741;49.834;10.740;2023-08-06T08:45:13;14.80;99.90
9403;DHT22;4741;49.834;10.740;2023-08-06T08:47:41;14.90;99.90
9403;DHT22;4741;49.834;10.740;2023-08-06T08:50:13;15.00;99.90
9403;DHT22;4741;49.834;10.740;2023-08-06T08:52:41;15.00;99.90
9403;DHT22;4741;49.834;10.740;2023-08-06T08:55:12;15.30;99.90
9403;DHT22;4741;49.834;10.740;2023-08-06T08:57:41;15.70;99.90
9403;DHT22;4741;49.834;10.740;2023-08-06T09:00:08;15.60;99.90
9403;DHT22;4741;49.834;10.740;2023-08-06T09:02:35;15.40;99.90
9403;DHT22;4741;49.834;10.740;2023-08-06T09:05:10;15.60;99.90
9403;DHT22;4741;49.834;10.740;2023-08-06T09:07:39;15.60;99.90
9403;DHT22;4741;49.834;10.740;2023-08-06T09:10:10;15.30;99.90
9403;DHT22;4741;49.834;10.740;2023-08-06T09:12:38;15.50;99.90
9403;DHT22;4741;49.834;10.740;2023-08-06T09:15:05;15.50;99.90
9403;DHT22;4741;49.834;10.740;2023-08-06T09:17:32;15.50;99.90
9403;DHT22;4741;49.834;10.740;2023-08-06T09:19:59;15.50;99.90
9403;DHT22;4741;49.834;10.740;2023-08-06T09:22:32;15.50;99.90
9403;DHT22;4741;49.834;10.740;2023-08-06T09:25:00;15.80;99.90
9403;DHT22;4741;49.834;10.740;2023-08-06T09:27:27;15.70;99.90
9403;DHT22;4741;49.834;10.740;2023-08-06T09:29:54;15.70;99.90
9403;DHT22;4741;49.834;10.740;2023-08-06T09:32:20;15.80;99.90
9403;DHT22;4741;49.834;10.740;2023-08-06T09:34:47;15.90;99.90
9403;DHT22;4741;49.834;10.740;2023-08-06T09:37:22;16.00;99.90
9403;DHT22;4741;49.834;10.740;2023-08-06T09:39:49;16.30;99.90
9403;DHT22;4741;49.834;10.740;2023-08-06T09:42:18;16.20;99.90
9403;DHT22;4741;49.834;10.740;2023-08-06T09:44:44;16.20;99.90
9403;DHT22;4741;49.834;10.740;2023-08-06T09:47:11;16.00;99.90
9403;DHT22;4741;49.834;10.740;2023-08-06T09:49:41;16.00;99.90
9403;DHT22;4741;49.834;10.740;2023-08-06T09:52:12;16.10;99.90
9403;DHT22;4741;49.834;10.740;2023-08-06T09:54:40;16.30;99.90
9403;DHT22;4741;49.834;10.740;2023-08-06T09:57:07;16.10;99.90
9403;DHT22;4741;49.834;10.740;2023-08-06T09:59:35;16.20;99.90
9403;DHT22;4741;49.834;10.740;2023-08-06T10:02:05;16.40;99.90
9403;DHT22;4741;49.834;10.740;2023-08-06T10:04:39;16.20;99.90
9403;DHT22;4741;49.834;10.740;2023-08-06T10:09:34;16.90;99.90
9403;DHT22;4741;49.834;10.740;2023-08-06T10:12:01;17.00;99.90
9403;DHT22;4741;49.834;10.740;2023-08-06T10:14:30;17.10;99.90
9403;DHT22;4741;49.834;10.740;2023-08-06T10:16:59;17.20;99.90
9403;DHT22;4741;49.834;10.740;2023-08-06T10:19:27;17.50;99.90
9403;DHT22;4741;49.834;10.740;2023-08-06T10:22:13;17.50;99.90
9403;DHT22;4741;49.834;10.740;2023-08-06T10:32:48;17.80;99.90
9403;DHT22;4741;49.834;10.740;2023-08-06T10:38:05;18.00;99.90
9403;DHT22;4741;49.834;10.740;2023-08-06T10:40:32;18.20;99.90
9403;DHT22;4741;49.834;10.740;2023-08-06T10:43:00;17.90;99.90
9403;DHT22;4741;49.834;10.740;2023-08-06T10:45:28;18.20;99.90
9403;DHT22;4741;49.834;10.740;2023-08-06T10:47:57;18.20;99.90
9403;DHT22;4741;49.834;10.740;2023-08-06T10:50:24;17.80;99.90
9403;DHT22;4741;49.834;10.740;2023-08-06T10:52:51;17.50;99.90
9403;DHT22;4741;49.834;10.740;2023-08-06T10:55:25;18.00;99.90
9403;DHT22;4741;49.834;10.740;2023-08-06T10:57:53;18.10;99.90
9403;DHT22;4741;49.834;10.740;2023-08-06T11:00:21;18.30;99.90
9403;DHT22;4741;49.834;10.740;2023-08-06T11:02:51;17.90;99.90
9403;DHT22;4741;49.834;10.740;2023-08-06T11:05:19;18.60;99.90
9403;DHT22;4741;49.834;10.740;2023-08-06T11:07:46;18.20;99.90
9403;DHT22;4741;49.834;10.740;2023-08-06T11:10:14;18.00;99.90
9403;DHT22;4741;49.834;10.740;2023-08-06T11:12:41;17.80;99.90
9403;DHT22;4741;49.834;10.740;2023-08-06T11:15:08;18.10;99.90
9403;DHT22;4741;49.834;10.740;2023-08-06T11:17:35;17.40;99.90
9403;DHT22;4741;49.834;10.740;2023-08-06T11:20:03;17.10;99.90
9403;DHT22;4741;49.834;10.740;2023-08-06T11:22:31;16.40;99.90
9403;DHT22;4741;49.834;10.740;2023-08-06T11:24:58;16.40;99.90
9403;DHT22;4741;49.834;10.740;2023-08-06T11:27:27;17.30;99.90
9403;DHT22;4741;49.834;10.740;2023-08-06T11:29:55;18.20;99.90
9403;DHT22;4741;49.834;10.740;2023-08-06T11:32:22;19.40;99.90
9403;DHT22;4741;49.834;10.740;2023-08-06T11:34:49;19.40;99.90
9403;DHT22;4741;49.834;10.740;2023-08-06T11:37:16;19.00;99.90
9403;DHT22;4741;49.834;10.740;2023-08-06T11:39:46;18.90;99.90
9403;DHT22;4741;49.834;10.740;2023-08-06T11:42:17;18.10;99.90
9403;DHT22;4741;49.834;10.740;2023-08-06T11:44:44;19.00;99.90
9403;DHT22;4741;49.834;10.740;2023-08-06T11:47:12;18.90;99.90
9403;DHT22;4741;49.834;10.740;2023-08-06T11:49:45;20.20;99.90
9403;DHT22;4741;49.834;10.740;2023-08-06T11:54:46;20.40;99.90
9403;DHT22;4741;49.834;10.740;2023-08-06T11:57:15;19.20;99.90
9403;DHT22;4741;49.834;10.740;2023-08-06T11:59:44;18.80;99.90
9403;DHT22;4741;49.834;10.740;2023-08-06T12:02:11;18.60;99.90
9403;DHT22;4741;49.834;10.740;2023-08-06T12:07:47;19.50;99.90
9403;DHT22;4741;49.834;10.740;2023-08-06T12:10:15;19.30;99.90
9403;DHT22;4741;49.834;10.740;2023-08-06T12:26:42;21.80;99.90
9403;DHT22;4741;49.834;10.740;2023-08-06T12:29:10;21.00;99.90
9403;DHT22;4741;49.834;10.740;2023-08-06T12:31:37;19.30;99.90
9403;DHT22;4741;49.834;10.740;2023-08-06T12:34:04;18.50;99.90
9403;DHT22;4741;49.834;10.740;2023-08-06T12:36:30;18.00;99.90
9403;DHT22;4741;49.834;10.740;2023-08-06T12:38:57;17.90;99.90
9403;DHT22;4741;49.834;10.740;2023-08-06T12:41:24;17.80;99.90
9403;DHT22;4741;49.834;10.740;2023-08-06T12:43:51;18.90;99.90
9403;DHT22;4741;49.834;10.740;2023-08-06T12:46:18;18.70;99.90
9403;DHT22;4741;49.834;10.740;2023-08-06T12:48:44;19.40;99.90
9403;DHT22;4741;49.834;10.740;2023-08-06T12:51:11;19.90;99.90
9403;DHT22;4741;49.834;10.740;2023-08-06T12:53:38;20.60;99.90
9403;DHT22;4741;49.834;10.740;2023-08-06T12:56:04;20.70;99.90
9403;DHT22;4741;49.834;10.740;2023-08-06T12:58:32;19.80;99.90
9403;DHT22;4741;49.834;10.740;2023-08-06T13:00:58;20.00;99.90
9403;DHT22;4741;49.834;10.740;2023-08-06T13:03:25;19.70;99.90
9403;DHT22;4741;49.834;10.740;2023-08-06T13:05:53;18.80;99.90
9403;DHT22;4741;49.834;10.740;2023-08-06T13:08:19;18.80;99.90
9403;DHT22;4741;49.834;10.740;2023-08-06T13:10:46;19.90;99.90
9403;DHT22;4741;49.834;10.740;2023-08-06T13:13:13;20.60;99.90
9403;DHT22;4741;49.834;10.740;2023-08-06T13:15:39;20.80;99.90
9403;DHT22;4741;49.834;10.740;2023-08-06T13:18:07;21.60;99.90
9403;DHT22;4741;49.834;10.740;2023-08-06T13:20:33;21.30;99.90
9403;DHT22;4741;49.834;10.740;2023-08-06T13:23:00;20.20;99.90
9403;DHT22;4741;49.834;10.740;2023-08-06T13:25:27;19.30;99.90
9403;DHT22;4741;49.834;10.740;2023-08-06T13:28:03;20.80;99.90
9403;DHT22;4741;49.834;10.740;2023-08-06T13:30:30;18.80;99.90
9403;DHT22;4741;49.834;10.740;2023-08-06T13:32:57;19.20;99.90
9403;DHT22;4741;49.834;10.740;2023-08-06T13:35:24;18.80;99.90
9403;DHT22;4741;49.834;10.740;2023-08-06T13:37:51;18.20;99.90
9403;DHT22;4741;49.834;10.740;2023-08-06T13:40:18;18.70;99.90
9403;DHT22;4741;49.834;10.740;2023-08-06T13:42:45;19.20;99.90
9403;DHT22;4741;49.834;10.740;2023-08-06T13:45:12;21.40;99.90
9403;DHT22;4741;49.834;10.740;2023-08-06T13:47:39;20.10;99.90
9403;DHT22;4741;49.834;10.740;2023-08-06T13:50:05;19.00;99.90
9403;DHT22;4741;49.834;10.740;2023-08-06T13:52:32;19.60;99.90
9403;DHT22;4741;49.834;10.740;2023-08-06T13:57:26;18.60;99.90
9403;DHT22;4741;49.834;10.740;2023-08-06T13:59:53;18.90;99.90
9403;DHT22;4741;49.834;10.740;2023-08-06T14:02:19;17.40;99.90
9403;DHT22;4741;49.834;10.740;2023-08-06T14:04:46;18.00;99.90
9403;DHT22;4741;49.834;10.740;2023-08-06T14:07:13;17.80;99.90
9403;DHT22;4741;49.834;10.740;2023-08-06T14:09:40;17.40;99.90
9403;DHT22;4741;49.834;10.740;2023-08-06T14:12:08;16.90;99.90
9403;DHT22;4741;49.834;10.740;2023-08-06T14:14:35;17.40;99.90
9403;DHT22;4741;49.834;10.740;2023-08-06T14:17:02;16.50;99.90
9403;DHT22;4741;49.834;10.740;2023-08-06T14:19:29;16.00;99.90
9403;DHT22;4741;49.834;10.740;2023-08-06T14:21:56;15.90;99.90
9403;DHT22;4741;49.834;10.740;2023-08-06T14:24:23;15.70;99.90
9403;DHT22;4741;49.834;10.740;2023-08-06T14:26:50;16.30;99.90
9403;DHT22;4741;49.834;10.740;2023-08-06T14:29:16;15.60;99.90
9403;DHT22;4741;49.834;10.740;2023-08-06T14:31:43;15.40;99.90
9403;DHT22;4741;49.834;10.740;2023-08-06T14:34:10;15.40;99.90
9403;DHT22;4741;49.834;10.740;2023-08-06T14:41:31;15.80;99.90
9403;DHT22;4741;49.834;10.740;2023-08-06T14:43:57;15.20;99.90
9403;DHT22;4741;49.834;10.740;2023-08-06T14:46:24;15.00;99.90
9403;DHT22;4741;49.834;10.740;2023-08-06T14:48:51;15.30;99.90
9403;DHT22;4741;49.834;10.740;2023-08-06T14:51:18;15.40;99.90
9403;DHT22;4741;49.834;10.740;2023-08-06T14:53:46;15.40;99.90
9403;DHT22;4741;49.834;10.740;2023-08-06T14:56:13;15.40;99.90
9403;DHT22;4741;49.834;10.740;2023-08-06T14:58:40;15.40;99.90
9403;DHT22;4741;49.834;10.740;2023-08-06T15:01:08;15.40;99.90
9403;DHT22;4741;49.834;10.740;2023-08-06T15:03:35;14.90;99.90
9403;DHT22;4741;49.834;10.740;2023-08-06T15:06:01;16.00;99.90
9403;DHT22;4741;49.834;10.740;2023-08-06T15:08:28;16.10;99.90
9403;DHT22;4741;49.834;10.740;2023-08-06T15:10:55;14.80;99.90
9403;DHT22;4741;49.834;10.740;2023-08-06T15:13:22;14.80;99.90
9403;DHT22;4741;49.834;10.740;2023-08-06T15:15:49;14.70;99.90
9403;DHT22;4741;49.834;10.740;2023-08-06T15:18:16;14.40;99.90
9403;DHT22;4741;49.834;10.740;2023-08-06T15:20:42;14.90;99.90
9403;DHT22;4741;49.834;10.740;2023-08-06T15:23:09;14.90;99.90
9403;DHT22;4741;49.834;10.740;2023-08-06T15:25:36;14.80;99.90
9403;DHT22;4741;49.834;10.740;2023-08-06T15:28:03;14.60;99.90
9403;DHT22;4741;49.834;10.740;2023-08-06T15:30:29;14.60;99.90
9403;DHT22;4741;49.834;10.740;2023-08-06T15:32:56;15.30;99.90
9403;DHT22;4741;49.834;10.740;2023-08-06T15:35:23;14.50;99.90
9403;DHT22;4741;49.834;10.740;2023-08-06T15:37:50;14.40;99.90
9403;DHT22;4741;49.834;10.740;2023-08-06T15:40:17;14.30;99.90
9403;DHT22;4741;49.834;10.740;2023-08-06T15:42:44;14.30;99.90
9403;DHT22;4741;49.834;10.740;2023-08-06T15:45:10;15.00;99.90
9403;DHT22;4741;49.834;10.740;2023-08-06T15:47:37;13.90;99.90
9403;DHT22;4741;49.834;10.740;2023-08-06T15:50:08;14.50;99.90
9403;DHT22;4741;49.834;10.740;2023-08-06T15:52:35;13.90;99.90
9403;DHT22;4741;49.834;10.740;2023-08-06T15:55:02;13.70;99.90
9403;DHT22;4741;49.834;10.740;2023-08-06T15:57:33;13.80;99.90
9403;DHT22;4741;49.834;10.740;2023-08-06T16:00:00;13.60;99.90
9403;DHT22;4741;49.834;10.740;2023-08-06T16:02:27;13.40;99.90
9403;DHT22;4741;49.834;10.740;2023-08-06T16:04:54;14.40;99.90
9403;DHT22;4741;49.834;10.740;2023-08-06T16:07:21;13.00;99.90
9403;DHT22;4741;49.834;10.740;2023-08-06T16:09:55;13.30;99.90
9403;DHT22;4741;49.834;10.740;2023-08-06T16:12:22;13.50;99.90
9403;DHT22;4741;49.834;10.740;2023-08-06T16:14:49;13.10;99.90
9403;DHT22;4741;49.834;10.740;2023-08-06T16:17:16;13.20;99.90
9403;DHT22;4741;49.834;10.740;2023-08-06T16:19:43;13.30;99.90
9403;DHT22;4741;49.834;10.740;2023-08-06T16:22:10;13.50;99.90
9403;DHT22;4741;49.834;10.740;2023-08-06T16:24:37;13.10;99.90
9403;DHT22;4741;49.834;10.740;2023-08-06T16:27:04;13.40;99.90
9403;DHT22;4741;49.834;10.740;2023-08-06T16:29:31;14.30;99.90
9403;DHT22;4741;49.834;10.740;2023-08-06T16:31:59;13.50;99.90
9403;DHT22;4741;49.834;10.740;2023-08-06T16:34:26;13.10;99.90
9403;DHT22;4741;49.834;10.740;2023-08-06T16:36:53;12.90;99.90
9403;DHT22;4741;49.834;10.740;2023-08-06T16:39:21;13.30;99.90
9403;DHT22;4741;49.834;10.740;2023-08-06T16:41:49;12.70;99.90